sensor_id;sensor_type;location;lat;lon;timestamp;noise_LAeq;noise_LA_min;noise_LA_max;noise_LA01;noise_LA95
66463;Laerm;56827;52.178;4.500;2023-02-28T00:00:07;32.08;30.18;40.54;;
66463;Laerm;56827;52.178;4.500;2023-02-28T00:00:20;31.79;30.14;34.51;;
66463;Laerm;56827;52.178;4.500;2023-02-28T00:00:30;31.37;29.63;33.81;;
66463;Laerm;56827;52.178;4.500;2023-02-28T00:00:41;31.47;30.03;32.91;;
66463;Laerm;56827;52.178;4.500;2023-02-28T00:00:51;31.75;30.24;33.69;;
66463;Laerm;56827;52.178;4.500;2023-02-28T00:01:01;31.80;30.24;33.80;;
66463;Laerm;56827;52.178;4.500;2023-02-28T00:01:12;31.50;29.97;34.92;;
66463;Laerm;56827;52.178;4.500;2023-02-28T00:01:23;31.28;29.62;33.55;;
66463;Laerm;56827;52.178;4.500;2023-02-28T00:01:34;31.20;29.64;33.08;;
66463;Laerm;56827;52.178;4.500;2023-02-28T00:01:44;31.32;29.81;32.95;;
66463;Laerm;56827;52.178;4.500;2023-02-28T00:01:54;30.93;29.58;32.35;;
66463;Laerm;56827;52.178;4.500;2023-02-28T00:02:04;31.68;29.56;37.67;;
66463;Laerm;56827;52.178;4.500;2023-02-28T00:02:14;30.87;29.48;32.36;;
66463;Laerm;56827;52.178;4.500;2023-02-28T00:02:27;30.75;29.43;31.79;;
66463;Laerm;56827;52.178;4.500;2023-02-28T00:02:37;32.35;29.53;36.46;;
66463;Laerm;56827;52.178;4.500;2023-02-28T00:02:48;33.49;30.54;42.39;;
66463;Laerm;56827;52.178;4.500;2023-02-28T00:02:58;32.35;30.59;35.43;;
66463;Laerm;56827;52.178;4.500;2023-02-28T00:03:09;31.46;29.80;33.33;;
66463;Laerm;56827;52.178;4.500;2023-02-28T00:03:19;31.26;29.97;32.63;;
66463;Laerm;56827;52.178;4.500;2023-02-28T00:03:29;30.94;29.61;32.35;;
66463;Laerm;56827;52.178;4.500;2023-02-28T00:03:39;31.26;29.87;34.52;;
66463;Laerm;56827;52.178;4.500;2023-02-28T00:03:50;31.78;30.20;34.48;;
66463;Laerm;56827;52.178;4.500;2023-02-28T00:04:00;31.95;30.62;39.90;;
66463;Laerm;56827;52.178;4.500;2023-02-28T00:04:11;31.67;30.18;33.13;;
66463;Laerm;56827;52.178;4.500;2023-02-28T00:04:21;31.96;30.29;33.80;;
66463;Laerm;56827;52.178;4.500;2023-02-28T00:04:31;31.94;30.26;33.57;;
66463;Laerm;56827;52.178;4.500;2023-02-28T00:04:41;31.45;30.09;33.49;;
66463;Laerm;56827;52.178;4.500;2023-02-28T00:04:51;31.66;30.04;34.13;;
66463;Laerm;56827;52.178;4.500;2023-02-28T00:05:12;31.44;29.63;33.46;;
66463;Laerm;56827;52.178;4.500;2023-02-28T00:05:23;32.31;29.67;38.20;;
66463;Laerm;56827;52.178;4.500;2023-02-28T00:05:33;31.45;29.36;33.85;;
66463;Laerm;56827;52.178;4.500;2023-02-28T00:05:43;31.01;29.75;33.02;;
66463;Laerm;56827;52.178;4.500;2023-02-28T00:05:54;31.33;29.73;37.30;;
66463;Laerm;56827;52.178;4.500;2023-02-28T00:06:05;31.26;29.83;35.05;;
66463;Laerm;56827;52.178;4.500;2023-02-28T00:06:15;31.16;29.64;33.27;;
66463;Laerm;56827;52.178;4.500;2023-02-28T00:06:26;31.03;29.73;32.46;;
66463;Laerm;56827;52.178;4.500;2023-02-28T00:06:39;30.96;29.48;32.41;;
66463;Laerm;56827;52.178;4.500;2023-02-28T00:06:49;30.88;29.40;33.46;;
66463;Laerm;56827;52.178;4.500;2023-02-28T00:06:59;30.73;29.56;32.51;;
66463;Laerm;56827;52.178;4.500;2023-02-28T00:07:09;30.49;29.41;31.90;;
66463;Laerm;56827;52.178;4.500;2023-02-28T00:07:22;30.43;29.22;32.01;;
66463;Laerm;56827;52.178;4.500;2023-02-28T00:07:32;30.63;29.22;32.56;;
66463;Laerm;56827;52.178;4.500;2023-02-28T00:07:43;31.24;29.73;32.92;;
66463;Laerm;56827;52.178;4.500;2023-02-28T00:07:53;31.32;29.59;32.75;;
66463;Laerm;56827;52.178;4.500;2023-02-28T00:08:04;31.31;30.06;33.08;;
66463;Laerm;56827;52.178;4.500;2023-02-28T00:08:14;31.21;29.73;33.00;;
66463;Laerm;56827;52.178;4.500;2023-02-28T00:08:24;31.17;29.74;33.30;;
66463;Laerm;56827;52.178;4.500;2023-02-28T00:08:35;32.10;30.26;35.03;;
66463;Laerm;56827;52.178;4.500;2023-02-28T00:08:45;33.89;31.20;38.30;;
66463;Laerm;56827;52.178;4.500;2023-02-28T00:08:56;33.75;31.29;36.15;;
66463;Laerm;56827;52.178;4.500;2023-02-28T00:09:08;33.10;31.70;34.52;;
66463;Laerm;56827;52.178;4.500;2023-02-28T00:09:18;34.60;31.94;36.68;;
66463;Laerm;56827;52.178;4.500;2023-02-28T00:09:29;33.76;31.81;35.73;;
66463;Laerm;56827;52.178;4.500;2023-02-28T00:09:39;33.33;31.98;35.04;;
66463;Laerm;56827;52.178;4.500;2023-02-28T00:09:49;35.64;32.68;40.48;;
66463;Laerm;56827;52.178;4.500;2023-02-28T00:09:59;34.76;31.81;37.87;;
66463;Laerm;56827;52.178;4.500;2023-02-28T00:10:11;36.07;33.44;38.57;;
66463;Laerm;56827;52.178;4.500;2023-02-28T00:10:23;35.54;33.23;39.13;;
66463;Laerm;56827;52.178;4.500;2023-02-28T00:10:33;32.35;30.29;34.98;;
66463;Laerm;56827;52.178;4.500;2023-02-28T00:10:44;32.56;30.03;36.09;;
66463;Laerm;56827;52.178;4.500;2023-02-28T00:10:54;31.91;30.03;35.02;;
66463;Laerm;56827;52.178;4.500;2023-02-28T00:11:05;32.72;30.33;42.57;;
66463;Laerm;56827;52.178;4.500;2023-02-28T00:11:16;32.05;30.10;34.58;;
66463;Laerm;56827;52.178;4.500;2023-02-28T00:11:26;32.32;30.33;34.56;;
66463;Laerm;56827;52.178;4.500;2023-02-28T00:11:37;31.52;29.91;35.51;;
66463;Laerm;56827;52.178;4.500;2023-02-28T00:11:47;31.64;29.91;37.24;;
66463;Laerm;56827;52.178;4.500;2023-02-28T00:11:58;31.17;29.83;33.12;;
66463;Laerm;56827;52.178;4.500;2023-02-28T00:12:08;31.59;29.89;34.74;;
66463;Laerm;56827;52.178;4.500;2023-02-28T00:12:20;31.31;29.89;36.35;;
66463;Laerm;56827;52.178;4.500;2023-02-28T00:12:30;32.23;30.06;35.42;;
66463;Laerm;56827;52.178;4.500;2023-02-28T00:12:40;31.91;29.84;34.76;;
66463;Laerm;56827;52.178;4.500;2023-02-28T00:12:51;31.86;30.34;33.70;;
66463;Laerm;56827;52.178;4.500;2023-02-28T00:13:03;31.90;30.01;34.76;;
66463;Laerm;56827;52.178;4.500;2023-02-28T00:13:14;31.14;29.72;32.93;;
66463;Laerm;56827;52.178;4.500;2023-02-28T00:13:25;31.12;29.78;33.42;;
66463;Laerm;56827;52.178;4.500;2023-02-28T00:13:35;31.52;29.34;33.41;;
66463;Laerm;56827;52.178;4.500;2023-02-28T00:13:47;33.01;29.64;39.09;;
66463;Laerm;56827;52.178;4.500;2023-02-28T00:13:58;32.32;30.10;35.16;;
66463;Laerm;56827;52.178;4.500;2023-02-28T00:14:08;32.12;30.55;34.56;;
66463;Laerm;56827;52.178;4.500;2023-02-28T00:14:18;32.69;30.46;38.13;;
66463;Laerm;56827;52.178;4.500;2023-02-28T00:14:29;31.69;30.32;33.31;;
66463;Laerm;56827;52.178;4.500;2023-02-28T00:14:40;31.07;29.78;32.75;;
66463;Laerm;56827;52.178;4.500;2023-02-28T00:14:50;30.95;29.47;32.27;;
66463;Laerm;56827;52.178;4.500;2023-02-28T00:15:01;31.35;29.59;33.51;;
66463;Laerm;56827;52.178;4.500;2023-02-28T00:15:11;31.96;30.21;34.55;;
66463;Laerm;56827;52.178;4.500;2023-02-28T00:15:22;32.29;30.48;35.30;;
66463;Laerm;56827;52.178;4.500;2023-02-28T00:15:33;32.40;30.81;36.36;;
66463;Laerm;56827;52.178;4.500;2023-02-28T00:15:43;33.57;30.78;40.67;;
66463;Laerm;56827;52.178;4.500;2023-02-28T00:15:58;37.18;32.27;48.14;;
66463;Laerm;56827;52.178;4.500;2023-02-28T00:16:10;35.32;32.60;37.88;;
66463;Laerm;56827;52.178;4.500;2023-02-28T00:16:21;34.52;32.43;36.69;;
66463;Laerm;56827;52.178;4.500;2023-02-28T00:16:32;32.87;30.92;35.28;;
66463;Laerm;56827;52.178;4.500;2023-02-28T00:16:42;32.80;30.67;35.55;;
66463;Laerm;56827;52.178;4.500;2023-02-28T00:16:52;31.75;30.09;35.57;;
66463;Laerm;56827;52.178;4.500;2023-02-28T00:17:02;30.90;29.52;32.20;;
66463;Laerm;56827;52.178;4.500;2023-02-28T00:17:12;31.37;29.68;33.20;;
66463;Laerm;56827;52.178;4.500;2023-02-28T00:17:23;31.25;29.85;32.51;;
66463;Laerm;56827;52.178;4.500;2023-02-28T00:17:33;31.38;30.04;33.35;;
66463;Laerm;56827;52.178;4.500;2023-02-28T00:17:43;31.55;29.89;33.30;;
66463;Laerm;56827;52.178;4.500;2023-02-28T00:17:54;31.46;29.78;32.83;;
66463;Laerm;56827;52.178;4.500;2023-02-28T00:18:04;31.12;29.80;33.01;;
66463;Laerm;56827;52.178;4.500;2023-02-28T00:18:14;31.07;29.72;32.91;;
66463;Laerm;56827;52.178;4.500;2023-02-28T00:18:25;45.40;29.78;60.37;;
66463;Laerm;56827;52.178;4.500;2023-02-28T00:18:35;48.71;30.96;60.03;;
66463;Laerm;56827;52.178;4.500;2023-02-28T00:18:46;34.77;29.91;52.69;;
66463;Laerm;56827;52.178;4.500;2023-02-28T00:18:57;32.03;29.53;36.35;;
66463;Laerm;56827;52.178;4.500;2023-02-28T00:19:07;33.09;29.81;42.31;;
66463;Laerm;56827;52.178;4.500;2023-02-28T00:19:18;31.32;29.84;35.74;;
66463;Laerm;56827;52.178;4.500;2023-02-28T00:19:28;31.59;29.99;33.38;;
66463;Laerm;56827;52.178;4.500;2023-02-28T00:19:38;31.72;30.14;33.52;;
66463;Laerm;56827;52.178;4.500;2023-02-28T00:19:48;31.53;30.16;33.90;;
66463;Laerm;56827;52.178;4.500;2023-02-28T00:19:59;33.98;30.11;49.64;;
66463;Laerm;56827;52.178;4.500;2023-02-28T00:20:21;31.34;29.53;35.74;;
66463;Laerm;56827;52.178;4.500;2023-02-28T00:20:32;30.70;29.34;32.21;;
66463;Laerm;56827;52.178;4.500;2023-02-28T00:20:42;31.11;29.66;35.03;;
66463;Laerm;56827;52.178;4.500;2023-02-28T00:20:52;31.18;29.53;34.27;;
66463;Laerm;56827;52.178;4.500;2023-02-28T00:21:03;30.95;29.56;34.00;;
66463;Laerm;56827;52.178;4.500;2023-02-28T00:21:13;30.96;29.49;32.73;;
66463;Laerm;56827;52.178;4.500;2023-02-28T00:21:24;31.17;29.84;33.10;;
66463;Laerm;56827;52.178;4.500;2023-02-28T00:21:34;32.78;29.91;35.55;;
66463;Laerm;56827;52.178;4.500;2023-02-28T00:21:45;33.16;30.62;36.52;;
66463;Laerm;56827;52.178;4.500;2023-02-28T00:21:55;32.45;30.43;36.80;;
66463;Laerm;56827;52.178;4.500;2023-02-28T00:22:06;32.99;30.17;36.85;;
66463;Laerm;56827;52.178;4.500;2023-02-28T00:22:19;32.39;30.50;34.50;;
66463;Laerm;56827;52.178;4.500;2023-02-28T00:22:32;31.53;30.11;33.47;;
66463;Laerm;56827;52.178;4.500;2023-02-28T00:22:43;32.37;30.28;37.52;;
66463;Laerm;56827;52.178;4.500;2023-02-28T00:22:53;31.39;29.90;33.42;;
66463;Laerm;56827;52.178;4.500;2023-02-28T00:23:04;31.61;29.34;33.39;;
66463;Laerm;56827;52.178;4.500;2023-02-28T00:23:14;33.40;30.45;39.05;;
66463;Laerm;56827;52.178;4.500;2023-02-28T00:23:25;38.24;31.10;42.47;;
66463;Laerm;56827;52.178;4.500;2023-02-28T00:23:35;33.50;30.15;39.45;;
66463;Laerm;56827;52.178;4.500;2023-02-28T00:23:46;31.04;29.47;33.14;;
66463;Laerm;56827;52.178;4.500;2023-02-28T00:23:56;30.78;29.34;32.14;;
66463;Laerm;56827;52.178;4.500;2023-02-28T00:24:07;30.79;29.37;32.71;;
66463;Laerm;56827;52.178;4.500;2023-02-28T00:24:17;31.34;29.41;33.66;;
66463;Laerm;56827;52.178;4.500;2023-02-28T00:24:27;34.15;29.90;41.47;;
66463;Laerm;56827;52.178;4.500;2023-02-28T00:24:37;38.99;32.02;50.75;;
66463;Laerm;56827;52.178;4.500;2023-02-28T00:24:48;43.56;34.07;55.65;;
66463;Laerm;56827;52.178;4.500;2023-02-28T00:24:58;35.89;30.98;44.23;;
66463;Laerm;56827;52.178;4.500;2023-02-28T00:25:09;31.87;30.25;35.30;;
66463;Laerm;56827;52.178;4.500;2023-02-28T00:25:21;31.97;29.82;35.24;;
66463;Laerm;56827;52.178;4.500;2023-02-28T00:25:32;31.30;29.65;34.29;;
66463;Laerm;56827;52.178;4.500;2023-02-28T00:25:42;31.31;29.28;37.63;;
66463;Laerm;56827;52.178;4.500;2023-02-28T00:25:52;30.64;29.26;31.93;;
66463;Laerm;56827;52.178;4.500;2023-02-28T00:26:03;30.91;29.14;33.42;;
66463;Laerm;56827;52.178;4.500;2023-02-28T00:26:14;30.90;29.53;32.23;;
66463;Laerm;56827;52.178;4.500;2023-02-28T00:26:24;31.51;30.09;35.18;;
66463;Laerm;56827;52.178;4.500;2023-02-28T00:26:34;31.09;29.70;32.61;;
66463;Laerm;56827;52.178;4.500;2023-02-28T00:26:44;31.39;29.68;34.46;;
66463;Laerm;56827;52.178;4.500;2023-02-28T00:26:55;30.93;29.72;32.34;;
66463;Laerm;56827;52.178;4.500;2023-02-28T00:27:05;30.61;29.20;32.02;;
66463;Laerm;56827;52.178;4.500;2023-02-28T00:27:15;30.85;29.77;32.18;;
66463;Laerm;56827;52.178;4.500;2023-02-28T00:27:25;30.77;29.09;32.37;;
66463;Laerm;56827;52.178;4.500;2023-02-28T00:27:36;30.99;29.23;35.75;;
66463;Laerm;56827;52.178;4.500;2023-02-28T00:27:47;30.99;29.01;33.33;;
66463;Laerm;56827;52.178;4.500;2023-02-28T00:27:57;31.86;29.55;34.46;;
66463;Laerm;56827;52.178;4.500;2023-02-28T00:28:07;33.42;30.87;36.70;;
66463;Laerm;56827;52.178;4.500;2023-02-28T00:28:18;31.29;28.94;34.04;;
66463;Laerm;56827;52.178;4.500;2023-02-28T00:28:28;31.04;29.44;33.52;;
66463;Laerm;56827;52.178;4.500;2023-02-28T00:28:38;31.77;29.86;33.84;;
66463;Laerm;56827;52.178;4.500;2023-02-28T00:28:48;35.09;30.94;40.52;;
66463;Laerm;56827;52.178;4.500;2023-02-28T00:28:59;32.53;30.17;38.16;;
66463;Laerm;56827;52.178;4.500;2023-02-28T00:29:09;31.29;30.05;33.08;;
66463;Laerm;56827;52.178;4.500;2023-02-28T00:29:19;31.25;30.00;33.14;;
66463;Laerm;56827;52.178;4.500;2023-02-28T00:29:29;31.32;29.94;32.56;;
66463;Laerm;56827;52.178;4.500;2023-02-28T00:29:40;32.81;30.50;36.19;;
66463;Laerm;56827;52.178;4.500;2023-02-28T00:29:50;31.87;29.75;34.06;;
66463;Laerm;56827;52.178;4.500;2023-02-28T00:30:00;30.94;29.39;33.13;;
66463;Laerm;56827;52.178;4.500;2023-02-28T00:30:14;31.33;29.76;33.07;;
66463;Laerm;56827;52.178;4.500;2023-02-28T00:30:26;31.38;29.95;36.98;;
66463;Laerm;56827;52.178;4.500;2023-02-28T00:30:36;31.85;30.13;38.15;;
66463;Laerm;56827;52.178;4.500;2023-02-28T00:30:46;32.52;30.28;37.71;;
66463;Laerm;56827;52.178;4.500;2023-02-28T00:30:57;34.51;30.85;38.79;;
66463;Laerm;56827;52.178;4.500;2023-02-28T00:31:07;31.60;29.90;34.39;;
66463;Laerm;56827;52.178;4.500;2023-02-28T00:31:17;31.36;29.90;36.83;;
66463;Laerm;56827;52.178;4.500;2023-02-28T00:31:28;31.74;30.15;34.41;;
66463;Laerm;56827;52.178;4.500;2023-02-28T00:31:38;31.93;30.62;33.70;;
66463;Laerm;56827;52.178;4.500;2023-02-28T00:31:48;31.73;30.02;33.44;;
66463;Laerm;56827;52.178;4.500;2023-02-28T00:31:58;32.11;29.97;41.93;;
66463;Laerm;56827;52.178;4.500;2023-02-28T00:32:09;30.95;29.21;32.54;;
66463;Laerm;56827;52.178;4.500;2023-02-28T00:32:19;31.24;29.68;33.16;;
66463;Laerm;56827;52.178;4.500;2023-02-28T00:32:29;33.47;30.05;40.43;;
66463;Laerm;56827;52.178;4.500;2023-02-28T00:32:40;34.80;31.16;41.35;;
66463;Laerm;56827;52.178;4.500;2023-02-28T00:32:50;31.54;29.89;33.66;;
66463;Laerm;56827;52.178;4.500;2023-02-28T00:33:01;32.15;29.83;45.64;;
66463;Laerm;56827;52.178;4.500;2023-02-28T00:33:11;31.46;29.40;34.35;;
66463;Laerm;56827;52.178;4.500;2023-02-28T00:33:21;31.56;30.00;34.86;;
66463;Laerm;56827;52.178;4.500;2023-02-28T00:33:31;30.91;29.54;33.55;;
66463;Laerm;56827;52.178;4.500;2023-02-28T00:33:41;31.26;29.81;33.98;;
66463;Laerm;56827;52.178;4.500;2023-02-28T00:33:52;31.92;30.21;34.51;;
66463;Laerm;56827;52.178;4.500;2023-02-28T00:34:02;31.70;30.18;33.96;;
66463;Laerm;56827;52.178;4.500;2023-02-28T00:34:12;31.52;30.15;32.95;;
66463;Laerm;56827;52.178;4.500;2023-02-28T00:34:22;32.39;30.25;37.70;;
66463;Laerm;56827;52.178;4.500;2023-02-28T00:34:33;32.41;30.54;34.44;;
66463;Laerm;56827;52.178;4.500;2023-02-28T00:34:47;37.99;32.65;49.77;;
66463;Laerm;56827;52.178;4.500;2023-02-28T00:34:57;40.05;37.16;43.09;;
66463;Laerm;56827;52.178;4.500;2023-02-28T00:35:10;48.36;38.97;54.81;;
66463;Laerm;56827;52.178;4.500;2023-02-28T00:35:20;50.26;43.87;57.13;;
66463;Laerm;56827;52.178;4.500;2023-02-28T00:35:31;48.57;43.58;53.57;;
66463;Laerm;56827;52.178;4.500;2023-02-28T00:35:41;43.28;38.04;46.91;;
66463;Laerm;56827;52.178;4.500;2023-02-28T00:35:51;38.33;35.19;41.31;;
66463;Laerm;56827;52.178;4.500;2023-02-28T00:36:06;35.97;33.27;39.87;;
66463;Laerm;56827;52.178;4.500;2023-02-28T00:36:16;33.56;30.81;36.39;;
66463;Laerm;56827;52.178;4.500;2023-02-28T00:36:26;32.91;30.88;34.93;;
66463;Laerm;56827;52.178;4.500;2023-02-28T00:36:37;33.42;31.23;35.54;;
66463;Laerm;56827;52.178;4.500;2023-02-28T00:36:47;33.82;31.41;36.46;;
66463;Laerm;56827;52.178;4.500;2023-02-28T00:37:01;32.83;30.91;35.37;;
66463;Laerm;56827;52.178;4.500;2023-02-28T00:37:11;32.11;30.84;33.61;;
66463;Laerm;56827;52.178;4.500;2023-02-28T00:37:24;32.51;30.72;35.88;;
66463;Laerm;56827;52.178;4.500;2023-02-28T00:37:34;33.45;30.67;35.91;;
66463;Laerm;56827;52.178;4.500;2023-02-28T00:37:45;35.58;32.39;38.64;;
66463;Laerm;56827;52.178;4.500;2023-02-28T00:37:55;39.87;34.93;45.99;;
66463;Laerm;56827;52.178;4.500;2023-02-28T00:38:05;34.78;30.60;43.38;;
66463;Laerm;56827;52.178;4.500;2023-02-28T00:38:15;32.51;30.57;34.16;;
66463;Laerm;56827;52.178;4.500;2023-02-28T00:38:26;33.65;31.01;35.56;;
66463;Laerm;56827;52.178;4.500;2023-02-28T00:38:36;31.98;29.82;34.04;;
66463;Laerm;56827;52.178;4.500;2023-02-28T00:38:47;33.06;29.58;36.12;;
66463;Laerm;56827;52.178;4.500;2023-02-28T00:38:57;33.05;30.75;35.80;;
66463;Laerm;56827;52.178;4.500;2023-02-28T00:39:07;31.90;30.53;35.02;;
66463;Laerm;56827;52.178;4.500;2023-02-28T00:39:17;32.12;29.95;38.76;;
66463;Laerm;56827;52.178;4.500;2023-02-28T00:39:28;32.94;30.05;41.26;;
66463;Laerm;56827;52.178;4.500;2023-02-28T00:39:38;32.62;30.47;37.68;;
66463;Laerm;56827;52.178;4.500;2023-02-28T00:39:49;33.16;30.60;39.53;;
66463;Laerm;56827;52.178;4.500;2023-02-28T00:39:59;31.44;29.76;33.34;;
66463;Laerm;56827;52.178;4.500;2023-02-28T00:40:09;31.64;29.74;34.29;;
66463;Laerm;56827;52.178;4.500;2023-02-28T00:40:21;31.75;29.87;34.54;;
66463;Laerm;56827;52.178;4.500;2023-02-28T00:40:31;31.54;29.48;34.16;;
66463;Laerm;56827;52.178;4.500;2023-02-28T00:40:42;31.77;30.26;34.03;;
66463;Laerm;56827;52.178;4.500;2023-02-28T00:40:52;32.00;30.29;35.79;;
66463;Laerm;56827;52.178;4.500;2023-02-28T00:41:02;32.63;30.61;37.04;;
66463;Laerm;56827;52.178;4.500;2023-02-28T00:41:14;31.84;30.39;33.50;;
66463;Laerm;56827;52.178;4.500;2023-02-28T00:41:25;31.56;29.91;33.49;;
66463;Laerm;56827;52.178;4.500;2023-02-28T00:41:35;31.97;30.39;34.46;;
66463;Laerm;56827;52.178;4.500;2023-02-28T00:41:45;32.09;30.19;34.16;;
66463;Laerm;56827;52.178;4.500;2023-02-28T00:41:55;31.88;30.00;34.34;;
66463;Laerm;56827;52.178;4.500;2023-02-28T00:42:06;31.60;30.05;34.51;;
66463;Laerm;56827;52.178;4.500;2023-02-28T00:42:17;32.11;30.10;36.83;;
66463;Laerm;56827;52.178;4.500;2023-02-28T00:42:27;32.80;30.63;36.19;;
66463;Laerm;56827;52.178;4.500;2023-02-28T00:42:37;31.72;29.53;33.85;;
66463;Laerm;56827;52.178;4.500;2023-02-28T00:42:48;31.12;29.82;33.83;;
66463;Laerm;56827;52.178;4.500;2023-02-28T00:42:58;31.81;29.87;35.18;;
66463;Laerm;56827;52.178;4.500;2023-02-28T00:43:08;31.96;29.69;34.01;;
66463;Laerm;56827;52.178;4.500;2023-02-28T00:43:18;31.33;29.40;32.85;;
66463;Laerm;56827;52.178;4.500;2023-02-28T00:43:28;32.09;30.37;34.06;;
66463;Laerm;56827;52.178;4.500;2023-02-28T00:43:39;31.27;29.85;32.49;;
66463;Laerm;56827;52.178;4.500;2023-02-28T00:43:49;31.71;29.79;33.63;;
66463;Laerm;56827;52.178;4.500;2023-02-28T00:43:59;31.62;30.13;33.73;;
66463;Laerm;56827;52.178;4.500;2023-02-28T00:44:10;31.95;30.04;34.48;;
66463;Laerm;56827;52.178;4.500;2023-02-28T00:44:20;32.25;30.36;35.58;;
66463;Laerm;56827;52.178;4.500;2023-02-28T00:44:31;31.75;29.79;33.70;;
66463;Laerm;56827;52.178;4.500;2023-02-28T00:44:42;31.90;29.42;37.91;;
66463;Laerm;56827;52.178;4.500;2023-02-28T00:44:52;33.69;31.05;37.17;;
66463;Laerm;56827;52.178;4.500;2023-02-28T00:45:03;32.32;30.07;35.20;;
66463;Laerm;56827;52.178;4.500;2023-02-28T00:45:14;31.84;30.10;33.68;;
66463;Laerm;56827;52.178;4.500;2023-02-28T00:45:24;31.15;29.62;32.72;;
66463;Laerm;56827;52.178;4.500;2023-02-28T00:45:35;30.91;29.35;32.44;;
66463;Laerm;56827;52.178;4.500;2023-02-28T00:45:45;31.00;29.61;33.06;;
66463;Laerm;56827;52.178;4.500;2023-02-28T00:45:55;31.22;29.50;33.54;;
66463;Laerm;56827;52.178;4.500;2023-02-28T00:46:06;31.41;29.95;33.43;;
66463;Laerm;56827;52.178;4.500;2023-02-28T00:46:16;31.30;29.65;32.92;;
66463;Laerm;56827;52.178;4.500;2023-02-28T00:46:26;31.69;29.77;35.53;;
66463;Laerm;56827;52.178;4.500;2023-02-28T00:46:37;31.79;29.70;35.12;;
66463;Laerm;56827;52.178;4.500;2023-02-28T00:46:47;31.98;29.67;33.53;;
66463;Laerm;56827;52.178;4.500;2023-02-28T00:46:57;33.01;30.74;35.96;;
66463;Laerm;56827;52.178;4.500;2023-02-28T00:47:08;31.75;29.87;36.25;;
66463;Laerm;56827;52.178;4.500;2023-02-28T00:47:18;31.48;30.09;34.11;;
66463;Laerm;56827;52.178;4.500;2023-02-28T00:47:28;31.54;30.05;33.82;;
66463;Laerm;56827;52.178;4.500;2023-02-28T00:47:38;31.46;29.83;33.80;;
66463;Laerm;56827;52.178;4.500;2023-02-28T00:47:49;32.13;30.61;34.23;;
66463;Laerm;56827;52.178;4.500;2023-02-28T00:47:59;35.01;31.05;40.90;;
66463;Laerm;56827;52.178;4.500;2023-02-28T00:48:10;38.81;34.33;46.18;;
66463;Laerm;56827;52.178;4.500;2023-02-28T00:48:20;37.78;33.73;41.78;;
66463;Laerm;56827;52.178;4.500;2023-02-28T00:48:30;40.35;34.31;46.78;;
66463;Laerm;56827;52.178;4.500;2023-02-28T00:48:41;34.38;32.46;37.42;;
66463;Laerm;56827;52.178;4.500;2023-02-28T00:48:51;37.29;32.80;40.69;;
66463;Laerm;56827;52.178;4.500;2023-02-28T00:49:01;34.80;32.60;38.18;;
66463;Laerm;56827;52.178;4.500;2023-02-28T00:49:12;34.63;31.54;38.07;;
66463;Laerm;56827;52.178;4.500;2023-02-28T00:49:22;33.01;30.56;35.95;;
66463;Laerm;56827;52.178;4.500;2023-02-28T00:49:32;31.89;30.20;33.45;;
66463;Laerm;56827;52.178;4.500;2023-02-28T00:49:43;31.85;30.42;34.36;;
66463;Laerm;56827;52.178;4.500;2023-02-28T00:49:53;32.38;29.69;37.88;;
66463;Laerm;56827;52.178;4.500;2023-02-28T00:50:03;31.45;29.90;33.91;;
66463;Laerm;56827;52.178;4.500;2023-02-28T00:50:14;31.41;29.97;32.96;;
66463;Laerm;56827;52.178;4.500;2023-02-28T00:50:24;30.97;28.98;32.69;;
66463;Laerm;56827;52.178;4.500;2023-02-28T00:50:34;31.47;29.76;33.43;;
66463;Laerm;56827;52.178;4.500;2023-02-28T00:50:44;31.39;29.49;34.93;;
66463;Laerm;56827;52.178;4.500;2023-02-28T00:50:58;31.75;29.91;35.80;;
66463;Laerm;56827;52.178;4.500;2023-02-28T00:51:08;31.32;30.02;35.09;;
66463;Laerm;56827;52.178;4.500;2023-02-28T00:51:18;31.76;29.98;35.20;;
66463;Laerm;56827;52.178;4.500;2023-02-28T00:51:29;31.07;29.75;32.70;;
66463;Laerm;56827;52.178;4.500;2023-02-28T00:51:39;30.99;29.69;33.31;;
66463;Laerm;56827;52.178;4.500;2023-02-28T00:51:49;31.26;29.72;33.02;;
66463;Laerm;56827;52.178;4.500;2023-02-28T00:52:00;31.20;29.74;32.84;;
66463;Laerm;56827;52.178;4.500;2023-02-28T00:52:10;31.54;29.72;34.16;;
66463;Laerm;56827;52.178;4.500;2023-02-28T00:52:20;31.49;30.26;33.93;;
66463;Laerm;56827;52.178;4.500;2023-02-28T00:52:31;31.62;29.67;33.49;;
66463;Laerm;56827;52.178;4.500;2023-02-28T00:52:41;31.46;29.77;32.89;;
66463;Laerm;56827;52.178;4.500;2023-02-28T00:52:52;31.19;29.74;34.18;;
66463;Laerm;56827;52.178;4.500;2023-02-28T00:53:02;31.08;29.86;32.30;;
66463;Laerm;56827;52.178;4.500;2023-02-28T00:53:12;31.15;29.82;32.92;;
66463;Laerm;56827;52.178;4.500;2023-02-28T00:53:22;31.31;30.02;32.96;;
66463;Laerm;56827;52.178;4.500;2023-02-28T00:53:33;30.81;29.50;32.31;;
66463;Laerm;56827;52.178;4.500;2023-02-28T00:53:43;30.93;29.60;32.56;;
66463;Laerm;56827;52.178;4.500;2023-02-28T00:53:53;30.79;28.82;32.38;;
66463;Laerm;56827;52.178;4.500;2023-02-28T00:54:04;31.73;29.83;33.87;;
66463;Laerm;56827;52.178;4.500;2023-02-28T00:54:14;31.05;29.54;33.10;;
66463;Laerm;56827;52.178;4.500;2023-02-28T00:54:24;31.71;29.83;33.69;;
66463;Laerm;56827;52.178;4.500;2023-02-28T00:54:35;32.22;29.93;38.19;;
66463;Laerm;56827;52.178;4.500;2023-02-28T00:54:45;33.03;29.71;38.80;;
66463;Laerm;56827;52.178;4.500;2023-02-28T00:54:55;31.61;30.00;33.17;;
66463;Laerm;56827;52.178;4.500;2023-02-28T00:55:05;31.74;30.19;33.93;;
66463;Laerm;56827;52.178;4.500;2023-02-28T00:55:16;33.81;30.86;39.18;;
66463;Laerm;56827;52.178;4.500;2023-02-28T00:55:26;32.16;30.39;34.33;;
66463;Laerm;56827;52.178;4.500;2023-02-28T00:55:36;31.96;30.11;33.78;;
66463;Laerm;56827;52.178;4.500;2023-02-28T00:55:46;31.65;29.74;35.57;;
66463;Laerm;56827;52.178;4.500;2023-02-28T00:55:59;32.32;30.45;34.68;;
66463;Laerm;56827;52.178;4.500;2023-02-28T00:56:10;31.66;29.96;34.68;;
66463;Laerm;56827;52.178;4.500;2023-02-28T00:56:20;32.89;30.70;38.59;;
66463;Laerm;56827;52.178;4.500;2023-02-28T00:56:30;31.53;29.73;33.08;;
66463;Laerm;56827;52.178;4.500;2023-02-28T00:56:43;31.09;29.77;33.20;;
66463;Laerm;56827;52.178;4.500;2023-02-28T00:56:53;31.52;29.57;33.16;;
66463;Laerm;56827;52.178;4.500;2023-02-28T00:57:05;31.48;29.99;33.15;;
66463;Laerm;56827;52.178;4.500;2023-02-28T00:57:16;31.33;29.60;33.70;;
66463;Laerm;56827;52.178;4.500;2023-02-28T00:57:26;31.20;29.58;35.19;;
66463;Laerm;56827;52.178;4.500;2023-02-28T00:57:36;31.82;30.10;33.80;;
66463;Laerm;56827;52.178;4.500;2023-02-28T00:57:46;31.54;29.71;33.53;;
66463;Laerm;56827;52.178;4.500;2023-02-28T00:57:57;31.34;29.68;35.19;;
66463;Laerm;56827;52.178;4.500;2023-02-28T00:58:07;30.74;29.14;33.25;;
66463;Laerm;56827;52.178;4.500;2023-02-28T00:58:17;30.83;29.09;35.83;;
66463;Laerm;56827;52.178;4.500;2023-02-28T00:58:28;31.41;29.63;32.98;;
66463;Laerm;56827;52.178;4.500;2023-02-28T00:58:38;30.94;29.38;32.71;;
66463;Laerm;56827;52.178;4.500;2023-02-28T00:58:48;31.15;29.34;34.41;;
66463;Laerm;56827;52.178;4.500;2023-02-28T00:58:58;31.13;30.03;32.50;;
66463;Laerm;56827;52.178;4.500;2023-02-28T00:59:09;30.88;29.57;32.32;;
66463;Laerm;56827;52.178;4.500;2023-02-28T00:59:19;31.25;29.91;32.94;;
66463;Laerm;56827;52.178;4.500;2023-02-28T00:59:29;31.38;29.55;32.98;;